createdAt,value
2023-07-09T00:00:50.268Z,20.80
2023-07-09T00:03:18.632Z,20.71
2023-07-09T00:05:48.049Z,20.81
2023-07-09T00:08:32.361Z,20.75
2023-07-09T00:10:59.745Z,20.84
2023-07-09T00:13:28.594Z,20.93
2023-07-09T00:16:01.963Z,20.82
2023-07-09T00:18:29.564Z,20.77
2023-07-09T00:20:56.636Z,20.72
2023-07-09T00:23:23.733Z,20.73
2023-07-09T00:25:50.453Z,20.68
2023-07-09T00:28:18.735Z,20.58
2023-07-09T00:30:46.795Z,20.60
2023-07-09T00:33:15.578Z,20.60
2023-07-09T00:35:47.495Z,20.59
2023-07-09T00:38:15.599Z,20.56
2023-07-09T00:41:00.619Z,20.60
2023-07-09T00:43:31.736Z,20.50
2023-07-09T00:46:20.342Z,20.44
2023-07-09T00:48:49.751Z,20.36
2023-07-09T00:51:18.285Z,20.39
2023-07-09T00:53:49.383Z,20.15
2023-07-09T00:56:21.279Z,20.28
2023-07-09T00:58:49.231Z,20.31
2023-07-09T01:01:19.456Z,20.16
2023-07-09T01:03:53.577Z,20.23
2023-07-09T01:06:26.616Z,19.96
2023-07-09T01:08:54.649Z,19.86
2023-07-09T01:11:23.181Z,19.69
2023-07-09T01:13:52.381Z,19.60
2023-07-09T01:16:25.624Z,19.64
2023-07-09T01:18:53.219Z,19.70
2023-07-09T01:21:20.302Z,19.75
2023-07-09T01:23:48.920Z,19.84
2023-07-09T01:26:19.472Z,19.86
2023-07-09T01:28:47.188Z,20.05
2023-07-09T01:31:16.122Z,20.00
2023-07-09T01:33:45.701Z,19.81
2023-07-09T01:36:17.622Z,19.84
2023-07-09T01:38:45.069Z,19.74
2023-07-09T01:41:15.299Z,19.75
2023-07-09T01:43:43.376Z,19.56
2023-07-09T01:46:11.192Z,19.53
2023-07-09T01:48:42.350Z,19.50
2023-07-09T01:51:10.608Z,19.46
2023-07-09T01:53:39.243Z,19.45
2023-07-09T01:56:08.851Z,19.07
2023-07-09T01:58:35.899Z,18.99
2023-07-09T02:01:02.853Z,18.94
2023-07-09T02:03:30.144Z,18.81
2023-07-09T02:05:58.918Z,19.01
2023-07-09T02:08:25.742Z,19.12
2023-07-09T02:10:52.565Z,19.20
2023-07-09T02:13:19.286Z,19.25
2023-07-09T02:15:46.095Z,19.32
2023-07-09T02:18:13.907Z,19.34
2023-07-09T02:20:40.768Z,19.12
2023-07-09T02:23:09.208Z,19.05
2023-07-09T02:25:36.164Z,18.95
2023-07-09T02:28:02.896Z,18.79
2023-07-09T02:30:29.536Z,18.85
2023-07-09T02:32:56.320Z,18.84
2023-07-09T02:35:23.554Z,18.77
2023-07-09T02:37:50.611Z,18.66
2023-07-09T02:40:17.937Z,18.60
2023-07-09T02:42:44.602Z,18.50
2023-07-09T02:45:11.784Z,18.54
2023-07-09T02:47:38.663Z,18.56
2023-07-09T02:50:06.005Z,18.70
2023-07-09T02:52:32.696Z,18.55
2023-07-09T02:54:59.547Z,18.58
2023-07-09T02:57:26.211Z,18.53
2023-07-09T02:59:52.934Z,18.47
2023-07-09T03:02:19.732Z,18.45
2023-07-09T03:04:46.461Z,18.50
2023-07-09T03:07:13.151Z,18.48
2023-07-09T03:09:39.779Z,18.37
2023-07-09T03:12:07.092Z,18.46
2023-07-09T03:14:34.338Z,18.41
2023-07-09T03:17:01.351Z,18.49
2023-07-09T03:19:28.132Z,18.54
2023-07-09T03:21:54.824Z,18.53
2023-07-09T03:24:21.920Z,18.41
2023-07-09T03:26:49.046Z,18.44
2023-07-09T03:29:15.943Z,18.42
2023-07-09T03:31:42.696Z,18.49
2023-07-09T03:34:09.470Z,18.54
2023-07-09T03:36:38.844Z,18.54
2023-07-09T03:39:06.603Z,18.44
2023-07-09T03:41:33.235Z,18.47
2023-07-09T03:43:59.930Z,18.35
2023-07-09T03:46:26.670Z,18.23
2023-07-09T03:48:53.486Z,18.18
2023-07-09T03:51:20.245Z,18.21
2023-07-09T03:53:46.868Z,18.25
2023-07-09T03:56:13.608Z,18.18
2023-07-09T03:58:40.366Z,18.09
2023-07-09T04:01:10.364Z,18.04
2023-07-09T04:03:37.001Z,18.20
2023-07-09T04:06:06.781Z,18.38
2023-07-09T04:08:33.579Z,18.45
2023-07-09T04:11:02.161Z,18.40
2023-07-09T04:13:29.456Z,18.36
2023-07-09T04:15:57.300Z,18.39
2023-07-09T04:18:24.221Z,18.29
2023-07-09T04:20:52.023Z,18.23
2023-07-09T04:23:19.620Z,18.25
2023-07-09T04:25:46.449Z,18.21
2023-07-09T04:28:26.615Z,18.38
2023-07-09T04:30:53.361Z,18.33
2023-07-09T04:33:21.276Z,18.35
2023-07-09T04:35:49.586Z,18.44
2023-07-09T04:38:17.219Z,18.49
2023-07-09T04:40:44.194Z,18.60
2023-07-09T04:43:11.039Z,18.78
2023-07-09T04:45:37.732Z,18.95
2023-07-09T04:48:04.816Z,19.00
2023-07-09T04:50:31.564Z,19.12
2023-07-09T04:52:59.267Z,19.26
2023-07-09T04:55:25.989Z,19.26
2023-07-09T04:57:52.572Z,19.32
2023-07-09T05:00:19.656Z,19.41
2023-07-09T05:02:46.328Z,19.48
2023-07-09T05:05:13.390Z,19.50
2023-07-09T05:07:41.118Z,19.57
2023-07-09T05:10:08.250Z,19.60
2023-07-09T05:12:35.077Z,19.75
2023-07-09T05:15:01.695Z,19.77
2023-07-09T05:17:28.443Z,19.86
2023-07-09T05:19:55.347Z,19.98
2023-07-09T05:22:21.995Z,20.01
2023-07-09T05:24:48.989Z,20.21
2023-07-09T05:27:15.671Z,20.39
2023-07-09T05:29:42.614Z,20.37
2023-07-09T05:32:09.317Z,20.54
2023-07-09T05:34:36.184Z,20.68
2023-07-09T05:37:03.192Z,20.67
2023-07-09T05:39:30.066Z,20.75
2023-07-09T05:41:56.774Z,20.91
2023-07-09T05:44:23.636Z,21.01
2023-07-09T05:46:50.288Z,21.09
2023-07-09T05:49:16.924Z,21.25
2023-07-09T05:51:43.534Z,21.36
2023-07-09T05:54:10.840Z,21.50
2023-07-09T05:56:37.499Z,21.70
2023-07-09T05:59:04.282Z,21.90
2023-07-09T06:01:30.998Z,22.08
2023-07-09T06:03:57.849Z,22.25
2023-07-09T06:06:24.958Z,22.36
2023-07-09T06:08:51.585Z,22.38
2023-07-09T06:11:19.113Z,22.48
2023-07-09T06:13:48.124Z,22.48
2023-07-09T06:16:15.357Z,22.59
2023-07-09T06:18:42.037Z,22.86
2023-07-09T06:21:10.427Z,23.14
2023-07-09T06:23:37.071Z,23.30
2023-07-09T06:26:03.984Z,23.30
2023-07-09T06:28:31.740Z,23.43
2023-07-09T06:30:58.647Z,23.64
2023-07-09T06:33:27.011Z,23.74
2023-07-09T06:36:02.108Z,23.92
2023-07-09T06:38:30.147Z,24.00
2023-07-09T06:40:58.026Z,24.32
2023-07-09T06:43:24.775Z,24.42
2023-07-09T06:45:59.572Z,24.46
2023-07-09T06:48:27.752Z,24.28
2023-07-09T06:50:56.080Z,24.63
2023-07-09T06:53:23.685Z,24.69
2023-07-09T06:55:51.137Z,24.82
2023-07-09T06:58:18.527Z,24.95
2023-07-09T07:00:45.414Z,25.30
2023-07-09T07:03:12.218Z,25.52
2023-07-09T07:05:41.607Z,25.62
2023-07-09T07:08:08.537Z,25.55
2023-07-09T07:10:35.266Z,25.80
2023-07-09T07:13:01.964Z,25.72
2023-07-09T07:15:28.584Z,26.10
2023-07-09T07:17:55.618Z,26.53
2023-07-09T07:20:22.387Z,26.34
2023-07-09T07:22:49.199Z,26.72
2023-07-09T07:25:16.338Z,26.66
2023-07-09T07:27:43.095Z,27.05
2023-07-09T07:30:10.466Z,27.01
2023-07-09T07:32:39.356Z,27.25
2023-07-09T07:35:06.772Z,27.43
2023-07-09T07:37:33.632Z,26.91
2023-07-09T07:40:00.286Z,27.57
2023-07-09T07:42:27.072Z,28.18
2023-07-09T07:44:53.685Z,27.40
2023-07-09T07:47:20.918Z,27.51
2023-07-09T07:49:47.709Z,28.09
2023-07-09T07:52:14.691Z,27.74
2023-07-09T07:54:41.665Z,28.21
2023-07-09T07:57:10.273Z,28.09
2023-07-09T07:59:38.211Z,28.34
2023-07-09T08:02:07.459Z,29.12
2023-07-09T08:04:34.195Z,29.30
2023-07-09T08:07:00.881Z,28.87
2023-07-09T08:09:27.651Z,28.63
2023-07-09T08:11:54.321Z,28.47
2023-07-09T08:14:21.153Z,28.81
2023-07-09T08:16:49.195Z,29.65
2023-07-09T08:19:20.183Z,29.46
2023-07-09T08:21:46.988Z,30.00
2023-07-09T08:24:15.671Z,30.43
2023-07-09T08:26:42.515Z,30.70
2023-07-09T08:29:09.428Z,31.38
2023-07-09T08:31:36.188Z,30.96
2023-07-09T08:34:03.253Z,31.27
2023-07-09T08:36:30.767Z,31.41
2023-07-09T08:38:57.675Z,30.31
2023-07-09T08:41:36.467Z,30.60
2023-07-09T08:44:53.034Z,30.90
2023-07-09T08:47:38.153Z,31.82
2023-07-09T08:50:12.313Z,31.88
2023-07-09T08:52:44.511Z,32.29
2023-07-09T08:55:34.053Z,32.62
2023-07-09T08:58:16.162Z,31.93
2023-07-09T09:00:56.879Z,32.12
2023-07-09T09:03:39.587Z,31.61
2023-07-09T09:06:15.317Z,32.46
2023-07-09T09:08:44.710Z,32.89
2023-07-09T09:11:16.910Z,32.49
2023-07-09T09:13:44.988Z,33.62
2023-07-09T09:16:34.732Z,33.20
2023-07-09T09:19:02.908Z,33.29
2023-07-09T09:21:35.795Z,33.11
2023-07-09T09:24:27.989Z,32.52
2023-07-09T09:26:57.703Z,33.44
2023-07-09T09:29:25.757Z,34.22
2023-07-09T09:31:58.077Z,33.49
2023-07-09T09:34:30.584Z,32.99
2023-07-09T09:36:59.605Z,32.50
2023-07-09T09:39:26.832Z,33.39
2023-07-09T09:41:58.884Z,33.44
2023-07-09T09:44:27.977Z,33.36
2023-07-09T09:47:00.111Z,33.91
2023-07-09T09:49:27.548Z,33.70
2023-07-09T09:51:57.483Z,33.43
2023-07-09T09:54:32.136Z,34.38
2023-07-09T09:56:58.883Z,34.58
2023-07-09T09:59:28.938Z,34.71
2023-07-09T10:02:04.441Z,34.52
2023-07-09T10:04:31.343Z,34.13
2023-07-09T10:07:02.629Z,34.95
2023-07-09T10:09:50.296Z,34.28
2023-07-09T10:12:32.208Z,35.11
2023-07-09T10:15:13.804Z,35.51
2023-07-09T10:17:46.655Z,35.23
2023-07-09T10:20:32.054Z,35.03
2023-07-09T10:23:13.540Z,34.83
2023-07-09T10:25:46.168Z,35.53
2023-07-09T10:28:25.071Z,36.13
2023-07-09T10:31:19.732Z,37.20
2023-07-09T10:34:11.717Z,35.99
2023-07-09T10:37:22.875Z,35.33
2023-07-09T10:39:54.355Z,36.65
2023-07-09T10:42:45.592Z,36.23
2023-07-09T10:45:21.773Z,36.06
2023-07-09T10:47:51.168Z,35.70
2023-07-09T10:50:37.873Z,35.49
2023-07-09T10:53:33.849Z,36.00
2023-07-09T10:56:27.963Z,36.36
2023-07-09T10:59:24.021Z,36.38
2023-07-09T11:01:58.564Z,36.22
2023-07-09T11:04:34.883Z,36.13
2023-07-09T11:07:12.292Z,37.09
2023-07-09T11:09:43.019Z,37.31
2023-07-09T11:12:37.946Z,37.36
2023-07-09T11:15:13.954Z,37.32
2023-07-09T11:17:44.342Z,37.26
2023-07-09T11:20:27.241Z,37.40
2023-07-09T11:22:56.169Z,36.93
2023-07-09T11:25:47.676Z,37.04
2023-07-09T11:28:15.066Z,37.08
2023-07-09T11:30:52.866Z,37.31
2023-07-09T11:33:24.529Z,37.27
2023-07-09T11:35:54.733Z,37.40
2023-07-09T11:38:23.795Z,38.45
2023-07-09T11:40:57.213Z,37.63
2023-07-09T11:43:47.788Z,37.07
2023-07-09T11:46:19.303Z,37.42
2023-07-09T11:48:46.359Z,37.93
2023-07-09T11:51:22.270Z,38.03
2023-07-09T11:53:52.051Z,38.53
2023-07-09T11:56:23.680Z,38.52
2023-07-09T11:58:52.455Z,39.01
2023-07-09T12:01:45.197Z,38.06
2023-07-09T12:04:19.345Z,38.32
2023-07-09T12:06:46.476Z,39.08
2023-07-09T12:09:21.299Z,38.55
2023-07-09T12:11:50.441Z,39.69
2023-07-09T12:14:22.229Z,38.87
2023-07-09T12:16:51.572Z,38.21
2023-07-09T12:19:23.559Z,38.84
2023-07-09T12:21:57.650Z,38.54
2023-07-09T12:24:29.845Z,38.96
2023-07-09T12:27:01.603Z,38.91
2023-07-09T12:29:36.524Z,39.20
2023-07-09T12:32:15.614Z,39.44
2023-07-09T12:34:42.314Z,38.99
2023-07-09T12:37:16.533Z,38.26
2023-07-09T12:39:43.614Z,38.03
2023-07-09T12:42:16.461Z,39.25
2023-07-09T12:44:43.296Z,39.25
2023-07-09T12:47:14.857Z,39.14
2023-07-09T12:49:44.773Z,39.08
2023-07-09T12:52:23.355Z,38.85
2023-07-09T12:54:57.946Z,39.26
2023-07-09T12:57:25.438Z,38.94
2023-07-09T12:59:53.074Z,39.01
2023-07-09T13:02:22.237Z,39.29
2023-07-09T13:04:50.148Z,39.14
2023-07-09T13:07:22.848Z,39.31
2023-07-09T13:09:50.494Z,39.17
2023-07-09T13:12:17.206Z,38.78
2023-07-09T13:14:43.832Z,39.41
2023-07-09T13:17:10.952Z,39.84
2023-07-09T13:19:37.638Z,39.16
2023-07-09T13:22:06.141Z,39.00
2023-07-09T13:24:36.785Z,39.69
2023-07-09T13:27:04.036Z,39.82
2023-07-09T13:29:32.691Z,38.86
2023-07-09T13:31:59.357Z,39.09
2023-07-09T13:34:28.206Z,37.86
2023-07-09T13:36:57.591Z,39.87
2023-07-09T13:39:26.942Z,39.11
2023-07-09T13:41:55.507Z,38.29
2023-07-09T13:44:26.420Z,38.83
2023-07-09T13:46:56.155Z,38.80
2023-07-09T13:49:24.950Z,38.34
2023-07-09T13:51:53.541Z,38.67
2023-07-09T13:54:23.563Z,39.06
2023-07-09T13:56:53.331Z,39.11
2023-07-09T13:59:25.726Z,40.24
2023-07-09T14:01:55.340Z,38.19
2023-07-09T14:04:22.640Z,38.58
2023-07-09T14:06:49.410Z,39.50
2023-07-09T14:09:16.764Z,39.70
2023-07-09T14:11:50.838Z,40.02
2023-07-09T14:14:20.245Z,39.45
2023-07-09T14:16:48.961Z,38.92
2023-07-09T14:19:21.109Z,39.95
2023-07-09T14:21:49.264Z,39.55
2023-07-09T14:24:25.627Z,40.79
2023-07-09T14:26:53.683Z,39.91
2023-07-09T14:29:21.626Z,38.93
2023-07-09T14:31:48.977Z,39.73
2023-07-09T14:34:25.596Z,40.74
2023-07-09T14:36:53.968Z,39.85
2023-07-09T14:39:20.856Z,39.62
2023-07-09T14:41:48.663Z,40.95
2023-07-09T14:44:23.741Z,41.93
2023-07-09T14:46:52.223Z,41.74
2023-07-09T14:49:19.869Z,41.26
2023-07-09T14:51:48.748Z,39.91
2023-07-09T14:54:23.997Z,39.25
2023-07-09T14:56:52.461Z,39.74
2023-07-09T14:59:19.854Z,39.97
2023-07-09T15:01:46.950Z,40.03
2023-07-09T15:04:23.127Z,40.32
2023-07-09T15:06:54.762Z,39.94
2023-07-09T15:09:23.760Z,39.73
2023-07-09T15:11:52.756Z,39.33
2023-07-09T15:14:19.382Z,39.01
2023-07-09T15:16:48.218Z,38.85
2023-07-09T15:19:17.089Z,40.01
2023-07-09T15:21:44.299Z,39.86
2023-07-09T15:24:34.482Z,39.79
2023-07-09T15:27:02.151Z,38.74
2023-07-09T15:29:30.041Z,38.36
2023-07-09T15:31:56.913Z,39.46
2023-07-09T15:34:23.660Z,38.83
2023-07-09T15:36:52.021Z,38.05
2023-07-09T15:39:19.753Z,38.13
2023-07-09T15:41:47.000Z,38.40
2023-07-09T15:44:20.476Z,38.62
2023-07-09T15:46:55.452Z,37.66
2023-07-09T15:49:24.178Z,37.86
2023-07-09T15:51:50.957Z,37.59
2023-07-09T15:54:22.316Z,37.97
2023-07-09T15:56:50.216Z,37.87
2023-07-09T15:59:26.018Z,37.35
2023-07-09T16:01:52.781Z,37.18
2023-07-09T16:04:19.791Z,36.92
2023-07-09T16:06:47.487Z,36.74
2023-07-09T16:09:14.398Z,36.36
2023-07-09T16:11:50.376Z,36.09
2023-07-09T16:14:20.946Z,36.07
2023-07-09T16:16:52.031Z,35.73
2023-07-09T16:19:21.359Z,36.20
2023-07-09T16:21:49.746Z,36.63
2023-07-09T16:24:26.070Z,36.05
2023-07-09T16:26:53.134Z,35.68
2023-07-09T16:29:24.593Z,36.38
2023-07-09T16:31:55.815Z,37.23
2023-07-09T16:34:27.246Z,37.63
2023-07-09T16:36:55.768Z,37.76
2023-07-09T16:39:31.508Z,37.74
2023-07-09T16:41:58.895Z,37.75
2023-07-09T16:44:26.294Z,36.58
2023-07-09T16:46:54.234Z,36.92
2023-07-09T16:49:35.953Z,36.65
2023-07-09T16:52:02.938Z,36.90
2023-07-09T16:54:29.635Z,36.62
2023-07-09T16:56:56.614Z,36.81
2023-07-09T16:59:23.508Z,36.88
2023-07-09T17:01:51.607Z,37.08
2023-07-09T17:04:25.558Z,35.94
2023-07-09T17:06:52.542Z,35.64
2023-07-09T17:09:20.958Z,35.88
2023-07-09T17:11:58.714Z,35.82
2023-07-09T17:14:26.324Z,35.96
2023-07-09T17:16:53.138Z,35.59
2023-07-09T17:19:19.910Z,35.50
2023-07-09T17:21:48.457Z,35.81
2023-07-09T17:24:21.943Z,36.53
2023-07-09T17:26:50.203Z,36.32
2023-07-09T17:29:18.236Z,36.26
2023-07-09T17:31:50.106Z,36.02
2023-07-09T17:34:18.588Z,35.25
2023-07-09T17:36:46.357Z,35.52
2023-07-09T17:39:23.690Z,35.38
2023-07-09T17:41:52.173Z,35.21
2023-07-09T17:44:20.870Z,35.15
2023-07-09T17:46:49.886Z,34.84
2023-07-09T17:49:36.125Z,34.46
2023-07-09T17:52:03.135Z,34.65
2023-07-09T17:54:30.058Z,34.57
2023-07-09T17:56:57.885Z,34.93
2023-07-09T17:59:26.638Z,34.43
2023-07-09T18:02:13.342Z,34.45
2023-07-09T18:04:40.553Z,34.52
2023-07-09T18:07:33.490Z,34.69
2023-07-09T18:10:00.249Z,34.75
2023-07-09T18:12:28.746Z,35.02
2023-07-09T18:14:57.712Z,35.06
2023-07-09T18:17:31.287Z,34.36
2023-07-09T18:19:58.477Z,34.19
2023-07-09T18:22:32.321Z,33.71
2023-07-09T18:24:59.556Z,34.09
2023-07-09T18:27:27.883Z,33.21
2023-07-09T18:29:55.673Z,32.84
2023-07-09T18:32:24.903Z,32.85
2023-07-09T18:34:59.392Z,32.44
2023-07-09T18:37:26.357Z,32.48
2023-07-09T18:39:53.332Z,32.58
2023-07-09T18:42:24.577Z,31.92
2023-07-09T18:44:51.305Z,31.86
2023-07-09T18:47:19.944Z,31.56
2023-07-09T18:49:47.293Z,31.78
2023-07-09T18:52:16.471Z,31.80
2023-07-09T18:54:46.560Z,31.93
2023-07-09T18:57:15.075Z,32.31
2023-07-09T18:59:42.326Z,31.89
2023-07-09T19:02:23.367Z,31.34
2023-07-09T19:04:51.380Z,31.45
2023-07-09T19:07:20.036Z,31.35
2023-07-09T19:09:47.342Z,30.96
2023-07-09T19:12:15.202Z,30.52
2023-07-09T19:14:42.615Z,30.55
2023-07-09T19:17:15.292Z,30.27
2023-07-09T19:19:43.343Z,30.16
2023-07-09T19:22:13.499Z,30.26
2023-07-09T19:24:42.248Z,30.11
2023-07-09T19:27:24.525Z,30.39
2023-07-09T19:29:51.323Z,29.79
2023-07-09T19:32:24.709Z,29.67
2023-07-09T19:34:51.515Z,29.51
2023-07-09T19:37:25.262Z,29.68
2023-07-09T19:39:52.052Z,29.59
2023-07-09T19:42:21.019Z,29.25
2023-07-09T19:44:48.405Z,29.23
2023-07-09T19:47:26.817Z,29.37
2023-07-09T19:49:56.219Z,29.23
2023-07-09T19:52:23.439Z,29.24
2023-07-09T19:54:51.605Z,29.20
2023-07-09T19:57:18.382Z,29.03
2023-07-09T19:59:45.200Z,28.94
2023-07-09T20:02:20.244Z,28.55
2023-07-09T20:04:47.570Z,28.44
2023-07-09T20:07:14.670Z,28.25
2023-07-09T20:09:43.325Z,28.32
2023-07-09T20:12:27.408Z,28.22
2023-07-09T20:14:54.182Z,28.09
2023-07-09T20:17:21.062Z,28.23
2023-07-09T20:19:47.899Z,28.01
2023-07-09T20:22:25.481Z,27.97
2023-07-09T20:24:52.278Z,27.98
2023-07-09T20:27:19.689Z,27.98
2023-07-09T20:29:46.578Z,27.80
2023-07-09T20:32:22.392Z,27.78
2023-07-09T20:34:54.371Z,27.78
2023-07-09T20:37:22.814Z,27.80
2023-07-09T20:39:50.247Z,27.81
2023-07-09T20:42:16.948Z,27.68
2023-07-09T20:44:44.288Z,27.55
2023-07-09T20:47:29.227Z,27.44
2023-07-09T20:49:56.553Z,27.42
2023-07-09T20:52:26.146Z,27.37
2023-07-09T20:54:52.914Z,27.31
2023-07-09T20:57:20.656Z,27.15
2023-07-09T20:59:48.291Z,27.08
2023-07-09T21:02:22.133Z,27.12
2023-07-09T21:04:49.411Z,26.93
2023-07-09T21:07:16.458Z,26.76
2023-07-09T21:09:43.471Z,26.93
2023-07-09T21:12:11.402Z,26.95
2023-07-09T21:14:39.124Z,26.88
2023-07-09T21:17:06.672Z,26.65
2023-07-09T21:19:37.108Z,26.54
2023-07-09T21:22:11.515Z,26.44
2023-07-09T21:24:39.901Z,26.60
2023-07-09T21:27:06.884Z,26.59
2023-07-09T21:29:34.054Z,26.49
2023-07-09T21:32:03.396Z,26.40
2023-07-09T21:34:32.988Z,26.33
2023-07-09T21:37:03.365Z,26.46
2023-07-09T21:39:36.568Z,26.39
2023-07-09T21:42:04.052Z,26.31
2023-07-09T21:44:31.055Z,26.30
2023-07-09T21:47:01.827Z,26.23
2023-07-09T21:49:30.360Z,26.16
2023-07-09T21:51:57.069Z,26.15
2023-07-09T21:57:04.847Z,26.11
2023-07-09T21:59:33.312Z,26.16
2023-07-09T22:02:02.008Z,26.09
2023-07-09T22:04:32.607Z,26.17
2023-07-09T22:07:00.512Z,26.10
2023-07-09T22:09:27.606Z,25.99
2023-07-09T22:11:55.368Z,25.96
2023-07-09T22:14:25.654Z,26.00
2023-07-09T22:16:52.871Z,25.97
2023-07-09T22:19:26.118Z,25.84
2023-07-09T22:21:59.034Z,25.96
2023-07-09T22:24:25.870Z,25.99
2023-07-09T22:26:53.022Z,25.94
2023-07-09T22:29:19.734Z,25.94
2023-07-09T22:31:46.739Z,25.95
2023-07-09T22:34:20.341Z,26.07
2023-07-09T22:36:47.195Z,26.07
2023-07-09T22:39:15.158Z,26.04
2023-07-09T22:41:44.733Z,26.02
2023-07-09T22:44:13.188Z,26.31
2023-07-09T22:46:44.176Z,26.50
2023-07-09T22:49:16.088Z,26.57
2023-07-09T22:51:43.399Z,26.52
2023-07-09T22:54:11.833Z,26.68
2023-07-09T22:56:38.682Z,26.62
2023-07-09T22:59:05.526Z,26.71
2023-07-09T23:01:32.393Z,26.64
2023-07-09T23:03:59.246Z,26.82
2023-07-09T23:06:27.570Z,26.95
2023-07-09T23:08:57.147Z,26.89
2023-07-09T23:11:29.276Z,26.82
2023-07-09T23:13:57.506Z,26.89
2023-07-09T23:16:27.321Z,26.86
2023-07-09T23:18:54.274Z,26.78
2023-07-09T23:21:23.616Z,26.83
2023-07-09T23:23:54.986Z,26.67
2023-07-09T23:26:21.758Z,26.62
2023-07-09T23:28:48.589Z,26.62
2023-07-09T23:31:26.016Z,26.59
2023-07-09T23:33:53.945Z,26.58
2023-07-09T23:36:20.899Z,26.60
2023-07-09T23:38:48.130Z,26.58
2023-07-09T23:41:31.740Z,26.56
2023-07-09T23:44:00.726Z,26.58
2023-07-09T23:46:39.062Z,26.59
2023-07-09T23:49:10.975Z,26.57
2023-07-09T23:51:38.399Z,26.50
2023-07-09T23:54:08.654Z,26.52
2023-07-09T23:56:35.504Z,26.43
2023-07-09T23:59:03.638Z,26.22
